createdAt,value
2018-08-30T00:02:14.168Z,10.77
2018-08-30T00:04:44.404Z,10.70
2018-08-30T00:07:14.234Z,10.93
2018-08-30T00:09:44.433Z,11.03
2018-08-30T00:12:12.914Z,11.53
2018-08-30T00:14:42.124Z,11.77
2018-08-30T00:17:10.597Z,11.63
2018-08-30T00:19:39.857Z,12.07
2018-08-30T00:22:08.598Z,12.33
2018-08-30T00:24:37.760Z,12.03
2018-08-30T00:27:08.692Z,12.97
2018-08-30T00:29:38.361Z,14.57
2018-08-30T00:32:07.384Z,14.70
2018-08-30T00:34:36.211Z,16.17
2018-08-30T00:37:05.514Z,17.87
2018-08-30T00:39:34.212Z,18.87
2018-08-30T00:42:02.933Z,21.90
2018-08-30T00:44:31.394Z,23.17
2018-08-30T00:47:00.436Z,25.53
2018-08-30T00:49:29.685Z,29.47
2018-08-30T00:51:58.875Z,31.03
2018-08-30T00:54:28.145Z,32.70
2018-08-30T00:56:56.632Z,31.27
2018-08-30T00:59:25.426Z,33.13
2018-08-30T01:01:54.885Z,35.43
2018-08-30T01:04:23.365Z,35.07
2018-08-30T01:06:52.206Z,36.03
2018-08-30T01:09:21.149Z,38.60
2018-08-30T01:11:50.949Z,38.90
2018-08-30T01:14:20.042Z,40.93
2018-08-30T01:16:48.905Z,39.60
2018-08-30T01:19:18.264Z,39.27
2018-08-30T01:21:47.053Z,39.50
2018-08-30T01:24:15.557Z,41.03
2018-08-30T01:26:44.555Z,38.80
2018-08-30T01:29:13.251Z,38.47
2018-08-30T01:31:42.154Z,39.60
2018-08-30T01:34:13.173Z,40.83
2018-08-30T01:36:44.331Z,38.30
2018-08-30T01:39:13.490Z,35.17
2018-08-30T01:41:44.074Z,33.30
2018-08-30T01:44:13.772Z,31.30
2018-08-30T01:46:43.041Z,31.53
2018-08-30T01:49:11.988Z,26.57
2018-08-30T01:51:41.257Z,27.03
2018-08-30T01:54:09.792Z,25.60
2018-08-30T01:56:38.278Z,23.80
2018-08-30T01:59:07.191Z,21.87
2018-08-30T02:01:36.357Z,19.30
2018-08-30T02:04:05.315Z,18.73
2018-08-30T02:06:34.103Z,15.13
2018-08-30T02:09:02.653Z,15.90
2018-08-30T02:11:31.105Z,15.23
2018-08-30T02:13:59.974Z,15.83
2018-08-30T02:16:28.733Z,13.40
2018-08-30T02:18:57.204Z,12.90
2018-08-30T02:21:25.697Z,9.80
2018-08-30T02:23:54.201Z,10.17
2018-08-30T02:26:22.909Z,9.80
2018-08-30T02:28:51.904Z,9.70
2018-08-30T02:31:20.329Z,7.73
2018-08-30T02:33:48.781Z,7.60
2018-08-30T02:36:17.221Z,5.70
2018-08-30T02:38:46.270Z,5.63
2018-08-30T02:41:14.720Z,4.80
2018-08-30T02:43:43.166Z,4.33
2018-08-30T02:46:12.188Z,3.90
2018-08-30T02:48:41.144Z,3.63
2018-08-30T02:51:10.638Z,3.50
2018-08-30T02:53:39.861Z,3.63
2018-08-30T02:56:09.035Z,3.43
2018-08-30T02:58:38.027Z,3.07
2018-08-30T03:01:06.852Z,2.73
2018-08-30T03:03:36.239Z,2.53
2018-08-30T03:06:04.753Z,2.23
2018-08-30T03:08:33.225Z,2.20
2018-08-30T03:11:02.207Z,2.20
2018-08-30T03:13:30.701Z,2.27
2018-08-30T03:15:59.664Z,1.90
2018-08-30T03:18:28.863Z,2.20
2018-08-30T03:20:57.703Z,1.80
2018-08-30T03:23:26.389Z,2.00
2018-08-30T03:25:54.950Z,1.93
2018-08-30T03:28:23.393Z,2.07
2018-08-30T03:30:52.392Z,2.00
2018-08-30T03:33:20.987Z,2.20
2018-08-30T03:35:50.228Z,2.00
2018-08-30T03:38:18.704Z,1.90
2018-08-30T03:40:47.752Z,1.80
2018-08-30T03:43:16.205Z,2.10
2018-08-30T03:45:45.060Z,1.90
2018-08-30T03:48:13.552Z,1.90
2018-08-30T03:50:42.251Z,1.80
2018-08-30T03:53:10.729Z,1.80
2018-08-30T03:55:39.535Z,1.80
2018-08-30T03:58:08.196Z,1.63
2018-08-30T04:00:36.914Z,1.63
2018-08-30T04:03:05.630Z,1.77
2018-08-30T04:05:35.036Z,1.70
2018-08-30T04:08:03.538Z,1.50
2018-08-30T04:10:32.022Z,1.63
2018-08-30T04:13:00.876Z,1.77
2018-08-30T04:15:29.335Z,1.70
2018-08-30T04:17:58.814Z,1.33
2018-08-30T04:20:27.505Z,1.47
2018-08-30T04:22:56.417Z,1.40
2018-08-30T04:25:25.794Z,1.50
2018-08-30T04:27:54.261Z,1.47
2018-08-30T04:30:23.157Z,1.63
2018-08-30T04:32:51.696Z,1.27
2018-08-30T04:35:20.172Z,1.27
2018-08-30T04:37:48.690Z,1.20
2018-08-30T04:40:17.161Z,1.20
2018-08-30T04:42:45.774Z,1.13
2018-08-30T04:45:14.363Z,1.20
2018-08-30T04:47:43.219Z,1.20
2018-08-30T04:50:12.676Z,1.20
2018-08-30T04:52:41.140Z,0.97
2018-08-30T04:55:10.017Z,1.10
2018-08-30T04:57:38.508Z,1.20
2018-08-30T05:00:07.064Z,1.17
2018-08-30T05:02:35.523Z,1.40
2018-08-30T05:05:04.374Z,1.20
2018-08-30T05:07:33.276Z,1.30
2018-08-30T05:10:02.223Z,1.50
2018-08-30T05:12:30.961Z,1.20
2018-08-30T05:14:59.649Z,1.80
2018-08-30T05:17:28.391Z,1.97
2018-08-30T05:19:56.944Z,2.10
2018-08-30T05:22:25.685Z,2.20
2018-08-30T05:24:54.357Z,2.60
2018-08-30T05:27:23.049Z,2.87
2018-08-30T05:29:51.782Z,2.90
2018-08-30T05:32:20.976Z,2.80
2018-08-30T05:34:49.407Z,3.43
2018-08-30T05:37:18.542Z,3.33
2018-08-30T05:39:47.708Z,3.30
2018-08-30T05:42:16.187Z,3.83
2018-08-30T05:44:44.668Z,4.10
2018-08-30T05:47:13.456Z,4.60
2018-08-30T05:49:41.902Z,5.70
2018-08-30T05:52:11.013Z,5.73
2018-08-30T05:54:39.809Z,6.30
2018-08-30T05:57:08.808Z,7.53
2018-08-30T05:59:37.257Z,6.60
2018-08-30T06:02:05.699Z,8.30
2018-08-30T06:04:34.184Z,8.80
2018-08-30T06:07:02.654Z,8.57
2018-08-30T06:09:31.132Z,8.43
2018-08-30T06:12:00.742Z,8.20
2018-08-30T06:14:29.542Z,9.53
2018-08-30T06:16:58.616Z,9.73
2018-08-30T06:19:27.748Z,9.90
2018-08-30T06:21:56.608Z,9.80
2018-08-30T06:24:25.098Z,10.20
2018-08-30T06:26:53.621Z,9.87
2018-08-30T06:29:22.973Z,11.13
2018-08-30T06:31:51.377Z,11.00
2018-08-30T06:34:20.184Z,11.43
2018-08-30T06:36:48.645Z,12.27
2018-08-30T06:39:17.905Z,11.43
2018-08-30T06:41:46.392Z,11.40
2018-08-30T06:44:15.349Z,11.30
2018-08-30T06:46:44.659Z,11.37
2018-08-30T06:49:13.529Z,11.53
2018-08-30T06:51:42.467Z,11.63
2018-08-30T06:54:11.254Z,11.90
2018-08-30T06:56:39.762Z,11.43
2018-08-30T06:59:08.600Z,11.77
2018-08-30T07:01:37.510Z,11.70
2018-08-30T07:04:07.206Z,12.40
2018-08-30T07:06:35.657Z,11.70
2018-08-30T07:09:07.299Z,12.63
2018-08-30T07:11:35.747Z,12.73
2018-08-30T07:14:04.517Z,11.63
2018-08-30T07:16:32.976Z,11.07
2018-08-30T07:19:02.712Z,12.37
2018-08-30T07:21:31.688Z,11.50
2018-08-30T07:24:00.203Z,11.33
2018-08-30T07:26:28.676Z,11.73
2018-08-30T07:28:57.402Z,11.10
2018-08-30T07:31:25.870Z,11.20
2018-08-30T07:33:54.736Z,11.30
2018-08-30T07:36:24.516Z,12.23
2018-08-30T07:38:53.029Z,11.77
2018-08-30T07:41:22.052Z,12.00
2018-08-30T07:43:51.075Z,11.17
2018-08-30T07:46:19.894Z,10.80
2018-08-30T07:48:48.761Z,11.87
2018-08-30T07:51:17.255Z,11.07
2018-08-30T07:53:46.082Z,12.27
2018-08-30T07:56:14.764Z,11.97
2018-08-30T07:58:43.249Z,12.77
2018-08-30T08:01:12.389Z,12.50
2018-08-30T08:03:41.139Z,12.50
2018-08-30T08:06:09.690Z,13.20
2018-08-30T08:08:38.143Z,13.03
2018-08-30T08:11:07.133Z,12.57
2018-08-30T08:13:35.635Z,11.93
2018-08-30T08:16:04.108Z,12.43
2018-08-30T08:18:33.241Z,13.03
2018-08-30T08:21:01.779Z,12.43
2018-08-30T08:23:30.410Z,12.33
2018-08-30T08:26:01.144Z,12.50
2018-08-30T08:28:30.450Z,12.53
2018-08-30T08:30:59.323Z,12.23
2018-08-30T08:33:28.813Z,12.60
2018-08-30T08:35:57.336Z,13.03
2018-08-30T08:38:26.210Z,12.70
2018-08-30T08:40:55.667Z,13.23
2018-08-30T08:43:24.914Z,13.63
2018-08-30T08:45:54.991Z,13.77
2018-08-30T08:48:23.488Z,13.53
2018-08-30T08:50:52.345Z,13.83
2018-08-30T08:53:21.103Z,14.30
2018-08-30T08:55:49.596Z,13.47
2018-08-30T08:58:18.064Z,13.27
2018-08-30T09:00:47.604Z,13.63
2018-08-30T09:03:16.333Z,13.53
2018-08-30T09:05:45.619Z,14.23
2018-08-30T09:08:15.351Z,13.63
2018-08-30T09:10:44.501Z,13.97
2018-08-30T09:13:13.356Z,14.83
2018-08-30T09:15:41.832Z,14.33
2018-08-30T09:18:10.295Z,14.23
2018-08-30T09:20:39.145Z,13.40
2018-08-30T09:23:07.670Z,15.73
2018-08-30T09:25:36.465Z,15.60
2018-08-30T09:28:05.378Z,15.10
2018-08-30T09:30:33.893Z,14.10
2018-08-30T09:33:02.745Z,12.80
2018-08-30T09:35:31.269Z,14.10
2018-08-30T09:38:00.172Z,13.43
2018-08-30T09:40:31.151Z,13.50
2018-08-30T09:43:00.096Z,12.57
2018-08-30T09:45:29.103Z,13.37
2018-08-30T09:47:58.147Z,14.00
2018-08-30T09:50:27.599Z,13.13
2018-08-30T09:52:56.053Z,13.33
2018-08-30T09:55:24.868Z,13.43
2018-08-30T09:57:53.669Z,12.37
2018-08-30T10:00:27.778Z,13.43
2018-08-30T10:02:56.253Z,11.83
2018-08-30T10:05:25.259Z,10.80
2018-08-30T10:07:54.557Z,11.60
2018-08-30T10:10:23.331Z,11.27
2018-08-30T10:12:52.250Z,11.20
2018-08-30T10:15:21.165Z,12.30
2018-08-30T10:17:49.735Z,12.03
2018-08-30T10:20:19.333Z,11.30
2018-08-30T10:22:48.200Z,12.13
2018-08-30T10:25:16.732Z,12.23
2018-08-30T10:27:45.539Z,12.10
2018-08-30T10:30:14.488Z,12.47
2018-08-30T10:32:43.256Z,12.00
2018-08-30T10:35:11.748Z,12.40
2018-08-30T10:37:40.504Z,12.30
2018-08-30T10:40:09.387Z,12.93
2018-08-30T10:42:38.552Z,12.53
2018-08-30T10:45:07.307Z,12.50
2018-08-30T10:47:36.154Z,12.20
2018-08-30T10:50:06.404Z,12.97
2018-08-30T10:52:35.500Z,12.10
2018-08-30T10:55:04.029Z,11.53
2018-08-30T10:57:32.521Z,11.93
2018-08-30T11:00:01.432Z,12.23
2018-08-30T11:02:30.270Z,10.73
2018-08-30T11:04:59.652Z,10.30
2018-08-30T11:07:28.118Z,10.00
2018-08-30T11:09:56.969Z,10.30
2018-08-30T11:12:25.783Z,11.10
2018-08-30T11:14:55.399Z,9.83
2018-08-30T11:17:23.907Z,9.93
2018-08-30T11:19:52.696Z,10.43
2018-08-30T11:22:21.527Z,11.30
2018-08-30T11:24:50.241Z,9.93
2018-08-30T11:27:19.346Z,9.90
2018-08-30T11:29:48.263Z,8.43
2018-08-30T11:32:17.128Z,8.97
2018-08-30T11:34:46.153Z,8.37
2018-08-30T11:37:16.054Z,8.30
2018-08-30T11:39:44.856Z,8.30
2018-08-30T11:42:13.776Z,8.53
2018-08-30T11:44:42.740Z,8.20
2018-08-30T11:47:11.242Z,8.33
2018-08-30T11:49:39.714Z,8.33
2018-08-30T11:52:08.424Z,8.70
2018-08-30T11:54:36.871Z,9.10
2018-08-30T11:57:05.404Z,8.63
2018-08-30T11:59:34.037Z,9.03
2018-08-30T12:02:02.571Z,9.67
2018-08-30T12:04:31.531Z,9.07
2018-08-30T12:07:01.399Z,9.23
2018-08-30T12:09:32.892Z,10.30
2018-08-30T12:12:02.156Z,10.73
2018-08-30T12:14:30.612Z,9.50
2018-08-30T12:16:59.073Z,10.37
2018-08-30T12:19:31.248Z,9.27
2018-08-30T12:21:59.726Z,10.40
2018-08-30T12:24:28.425Z,8.17
2018-08-30T12:26:56.984Z,8.07
2018-08-30T12:29:25.726Z,7.23
2018-08-30T12:31:54.213Z,7.60
2018-08-30T12:34:22.738Z,7.13
2018-08-30T12:36:51.206Z,7.00
2018-08-30T12:39:19.667Z,6.60
2018-08-30T12:41:48.162Z,6.63
2018-08-30T12:44:16.647Z,7.10
2018-08-30T12:46:45.294Z,6.23
2018-08-30T12:49:13.993Z,6.33
2018-08-30T12:51:43.036Z,6.83
2018-08-30T12:54:11.429Z,6.30
2018-08-30T12:56:39.929Z,5.23
2018-08-30T12:59:14.045Z,5.23
2018-08-30T13:01:42.931Z,5.20
2018-08-30T13:04:11.809Z,5.50
2018-08-30T13:06:50.496Z,5.17
2018-08-30T13:09:19.664Z,4.67
2018-08-30T13:11:48.625Z,4.37
2018-08-30T13:14:17.319Z,4.73
2018-08-30T13:16:45.805Z,5.00
2018-08-30T13:19:15.037Z,4.80
2018-08-30T13:21:44.014Z,4.77
2018-08-30T13:24:12.677Z,5.53
2018-08-30T13:26:41.602Z,4.93
2018-08-30T13:29:10.568Z,5.27
2018-08-30T13:31:38.918Z,5.40
2018-08-30T13:34:07.746Z,5.90
2018-08-30T13:36:36.548Z,5.77
2018-08-30T13:39:06.953Z,5.40
2018-08-30T13:41:35.428Z,5.53
2018-08-30T13:44:04.546Z,5.70
2018-08-30T13:46:32.923Z,6.20
2018-08-30T13:49:01.420Z,6.47
2018-08-30T13:51:30.416Z,6.50
2018-08-30T13:53:59.533Z,6.37
2018-08-30T13:56:28.467Z,6.83
2018-08-30T13:58:57.197Z,7.03
2018-08-30T14:01:25.663Z,6.83
2018-08-30T14:03:54.269Z,6.07
2018-08-30T14:06:22.823Z,6.30
2018-08-30T14:08:53.163Z,5.93
2018-08-30T14:11:21.763Z,6.10
2018-08-30T14:13:50.271Z,5.70
2018-08-30T14:16:18.792Z,5.83
2018-08-30T14:18:49.158Z,5.43
2018-08-30T14:21:18.525Z,5.83
2018-08-30T14:23:47.039Z,6.17
2018-08-30T14:26:15.502Z,5.70
2018-08-30T14:28:44.582Z,6.13
2018-08-30T14:31:14.276Z,6.23
2018-08-30T14:33:42.780Z,6.03
2018-08-30T14:36:11.240Z,5.50
2018-08-30T14:38:40.070Z,5.50
2018-08-30T14:41:08.672Z,5.53
2018-08-30T14:43:38.859Z,5.83
2018-08-30T14:46:07.722Z,5.67
2018-08-30T14:48:36.403Z,5.73
2018-08-30T14:51:05.726Z,5.97
2018-08-30T14:53:34.462Z,5.97
2018-08-30T14:56:03.006Z,6.07
2018-08-30T14:58:31.730Z,6.30
2018-08-30T15:01:00.171Z,6.03
2018-08-30T15:03:29.397Z,6.03
2018-08-30T15:05:58.146Z,5.87
2018-08-30T15:08:26.847Z,5.37
2018-08-30T15:10:55.673Z,5.53
2018-08-30T15:13:24.162Z,5.20
2018-08-30T15:15:52.629Z,5.33
2018-08-30T15:18:23.433Z,5.30
2018-08-30T15:20:52.158Z,4.93
2018-08-30T15:23:21.207Z,4.60
2018-08-30T15:25:49.769Z,4.87
2018-08-30T15:28:18.491Z,4.27
2018-08-30T15:30:47.670Z,4.27
2018-08-30T15:33:16.184Z,4.40
2018-08-30T15:35:44.654Z,4.43
2018-08-30T15:38:13.133Z,4.43
2018-08-30T15:40:41.815Z,4.50
2018-08-30T15:43:10.463Z,4.20
2018-08-30T15:45:39.701Z,3.60
2018-08-30T15:48:08.298Z,3.70
2018-08-30T15:50:36.923Z,3.63
2018-08-30T15:53:05.436Z,3.50
2018-08-30T15:55:34.423Z,3.47
2018-08-30T15:58:03.316Z,3.77
2018-08-30T16:00:32.358Z,3.53
2018-08-30T16:03:01.223Z,3.13
2018-08-30T16:05:29.768Z,2.63
2018-08-30T16:07:58.822Z,3.00
2018-08-30T16:10:27.281Z,3.00
2018-08-30T16:12:56.325Z,3.10
2018-08-30T16:15:24.806Z,2.90
2018-08-30T16:17:53.283Z,2.90
2018-08-30T16:20:21.823Z,2.83
2018-08-30T16:23:09.351Z,2.70
2018-08-30T16:25:38.022Z,2.63
2018-08-30T16:28:07.511Z,2.23
2018-08-30T16:30:37.300Z,2.30
2018-08-30T16:33:05.710Z,2.50
2018-08-30T16:35:35.095Z,2.60
2018-08-30T16:38:04.062Z,2.70
2018-08-30T16:40:32.542Z,2.50
2018-08-30T16:43:01.317Z,2.70
2018-08-30T16:45:29.810Z,2.47
2018-08-30T16:47:58.343Z,2.27
2018-08-30T16:50:27.228Z,2.13
2018-08-30T16:52:55.728Z,2.57
2018-08-30T16:55:25.129Z,2.40
2018-08-30T16:57:53.596Z,2.40
2018-08-30T17:00:22.104Z,2.33
2018-08-30T17:02:51.021Z,2.23
2018-08-30T17:05:19.532Z,2.60
2018-08-30T17:07:49.799Z,2.17
2018-08-30T17:10:18.882Z,2.33
2018-08-30T17:12:47.484Z,2.40
2018-08-30T17:15:16.335Z,2.27
2018-08-30T17:17:45.241Z,2.20
2018-08-30T17:20:24.140Z,2.43
2018-08-30T17:22:52.962Z,2.57
2018-08-30T17:25:21.501Z,2.53
2018-08-30T17:27:50.516Z,2.60
2018-08-30T17:30:19.117Z,2.13
2018-08-30T17:32:47.571Z,2.00
2018-08-30T17:35:16.536Z,2.40
2018-08-30T17:37:45.314Z,2.53
2018-08-30T17:40:14.141Z,2.40
2018-08-30T17:42:42.694Z,2.30
2018-08-30T17:45:11.509Z,2.10
2018-08-30T17:47:41.117Z,2.23
2018-08-30T17:50:10.155Z,2.20
2018-08-30T17:52:39.506Z,2.30
2018-08-30T17:55:08.377Z,1.93
2018-08-30T17:57:36.838Z,2.00
2018-08-30T18:00:06.671Z,1.73
2018-08-30T18:02:35.572Z,2.30
2018-08-30T18:05:05.315Z,1.87
2018-08-30T18:07:34.083Z,2.07
2018-08-30T18:10:03.492Z,2.20
2018-08-30T18:12:35.815Z,2.10
2018-08-30T18:15:04.633Z,1.93
2018-08-30T18:17:33.121Z,1.87
2018-08-30T18:20:02.078Z,2.10
2018-08-30T18:22:30.798Z,2.10
2018-08-30T18:24:59.699Z,2.10
2018-08-30T18:27:29.258Z,1.93
2018-08-30T18:29:58.086Z,2.20
2018-08-30T18:32:26.564Z,2.10
2018-08-30T18:34:55.659Z,1.90
2018-08-30T18:37:24.099Z,2.03
2018-08-30T18:39:53.964Z,1.90
2018-08-30T18:42:22.790Z,1.80
2018-08-30T18:44:52.007Z,1.97
2018-08-30T18:47:21.303Z,1.40
2018-08-30T18:49:51.249Z,1.90
2018-08-30T18:52:20.037Z,1.80
2018-08-30T18:54:48.849Z,1.77
2018-08-30T18:57:17.267Z,1.80
2018-08-30T18:59:46.661Z,1.77
2018-08-30T19:02:15.156Z,1.90
2018-08-30T19:04:45.508Z,1.80
2018-08-30T19:07:13.954Z,1.87
2018-08-30T19:09:42.517Z,1.90
2018-08-30T19:12:11.990Z,2.07
2018-08-30T19:14:40.736Z,2.03
2018-08-30T19:17:14.827Z,1.90
2018-08-30T19:19:44.261Z,1.73
2018-08-30T19:22:13.097Z,1.83
2018-08-30T19:24:46.924Z,2.13
2018-08-30T19:27:16.163Z,1.90
2018-08-30T19:29:50.577Z,2.10
2018-08-30T19:32:25.535Z,1.90
2018-08-30T19:34:54.042Z,2.33
2018-08-30T19:37:23.111Z,1.80
2018-08-30T19:39:51.622Z,2.13
2018-08-30T19:42:21.732Z,2.00
2018-08-30T19:44:50.183Z,1.97
2018-08-30T19:47:19.007Z,2.10
2018-08-30T19:49:47.448Z,1.63
2018-08-30T19:52:16.741Z,1.90
2018-08-30T19:54:45.737Z,2.10
2018-08-30T19:57:14.132Z,1.60
2018-08-30T19:59:44.090Z,2.13
2018-08-30T20:02:13.046Z,1.83
2018-08-30T20:04:41.727Z,2.10
2018-08-30T20:07:10.253Z,2.13
2018-08-30T20:09:40.039Z,2.17
2018-08-30T20:12:08.734Z,2.20
2018-08-30T20:14:37.535Z,2.20
2018-08-30T20:17:06.276Z,2.40
2018-08-30T20:19:34.960Z,2.20
2018-08-30T20:22:06.256Z,2.30
2018-08-30T20:24:35.319Z,2.13
2018-08-30T20:27:03.804Z,2.47
2018-08-30T20:29:32.620Z,2.30
2018-08-30T20:32:02.982Z,2.37
2018-08-30T20:34:31.517Z,1.90
2018-08-30T20:37:00.790Z,1.93
2018-08-30T20:39:29.815Z,2.60
2018-08-30T20:41:58.463Z,2.37
2018-08-30T20:44:30.365Z,2.30
2018-08-30T20:46:58.852Z,2.27
2018-08-30T20:49:27.426Z,2.37
2018-08-30T20:51:55.916Z,2.03
2018-08-30T20:54:24.632Z,2.43
2018-08-30T20:56:57.466Z,2.07
2018-08-30T20:59:26.418Z,2.40
2018-08-30T21:01:55.268Z,2.33
2018-08-30T21:04:24.289Z,2.30
2018-08-30T21:06:56.465Z,2.10
2018-08-30T21:09:24.921Z,2.30
2018-08-30T21:11:53.493Z,2.20
2018-08-30T21:14:23.529Z,2.80
2018-08-30T21:16:52.990Z,2.23
2018-08-30T21:19:22.028Z,2.23
2018-08-30T21:21:51.744Z,2.47
2018-08-30T21:24:20.437Z,2.20
2018-08-30T21:26:49.258Z,2.10
2018-08-30T21:29:18.123Z,2.40
2018-08-30T21:31:46.603Z,2.53
2018-08-30T21:34:15.546Z,2.27
2018-08-30T21:36:44.342Z,2.10
2018-08-30T21:39:12.814Z,2.40
2018-08-30T21:41:42.425Z,2.60
2018-08-30T21:44:10.893Z,2.50
2018-08-30T21:46:39.574Z,2.10
2018-08-30T21:49:08.125Z,2.40
2018-08-30T21:51:38.304Z,2.03
2018-08-30T21:54:06.873Z,2.30
2018-08-30T21:56:35.346Z,2.23
2018-08-30T21:59:04.477Z,2.37
2018-08-30T22:01:34.332Z,2.00
2018-08-30T22:04:04.933Z,2.30
2018-08-30T22:06:33.399Z,2.23
2018-08-30T22:09:03.609Z,2.33
2018-08-30T22:11:32.472Z,2.30
2018-08-30T22:14:02.145Z,2.23
2018-08-30T22:16:31.167Z,2.40
2018-08-30T22:18:59.817Z,2.37
2018-08-30T22:21:29.757Z,2.13
2018-08-30T22:23:58.475Z,2.30
2018-08-30T22:26:26.971Z,2.47
2018-08-30T22:28:56.666Z,2.30
2018-08-30T22:31:25.909Z,2.57
2018-08-30T22:33:54.402Z,2.20
2018-08-30T22:36:23.546Z,2.47
2018-08-30T22:38:52.629Z,2.73
2018-08-30T22:41:22.090Z,2.40
2018-08-30T22:43:50.574Z,3.17
2018-08-30T22:46:20.136Z,2.73
2018-08-30T22:48:49.243Z,2.50
2018-08-30T22:51:18.603Z,2.27
2018-08-30T22:53:48.119Z,2.30
2018-08-30T22:56:17.305Z,2.80
2018-08-30T22:58:46.838Z,2.47
2018-08-30T23:01:17.924Z,2.40
2018-08-30T23:03:46.424Z,2.77
2018-08-30T23:06:15.129Z,2.80
2018-08-30T23:08:43.620Z,2.60
2018-08-30T23:11:12.087Z,2.53
2018-08-30T23:13:40.543Z,2.73
2018-08-30T23:16:09.048Z,2.57
2018-08-30T23:18:37.538Z,2.77
2018-08-30T23:21:07.007Z,2.93
2018-08-30T23:23:36.384Z,2.83
2018-08-30T23:26:04.978Z,3.00
2018-08-30T23:28:33.471Z,2.93
2018-08-30T23:31:01.947Z,2.60
2018-08-30T23:33:30.417Z,2.80
2018-08-30T23:35:58.864Z,3.40
2018-08-30T23:38:27.368Z,2.97
2018-08-30T23:40:56.060Z,3.03
2018-08-30T23:43:24.553Z,2.63
2018-08-30T23:45:54.659Z,2.87
2018-08-30T23:48:24.292Z,2.80
2018-08-30T23:50:53.186Z,3.03
2018-08-30T23:53:22.935Z,3.33
2018-08-30T23:55:52.409Z,2.87
2018-08-30T23:58:32.312Z,2.90
